Observations for TORINO CASELLE, Italy (LIMF)

LIMF 240850Z 08003KT 030V190 CAVOK 27/17 Q1020  
LIMF 240820Z 11003KT 070V150 CAVOK 26/18 Q1020  
LIMF 240750Z VRB02KT CAVOK 26/16 Q1020  
LIMF 240720Z VRB01KT CAVOK 25/17 Q1020  
LIMF 240650Z VRB02KT CAVOK 24/17 Q1020  
LIMF 240620Z VRB01KT CAVOK 24/17 Q1020  
LIMF 240550Z 05002KT CAVOK 22/17 Q1019  
LIMF 240520Z 35003KT CAVOK 21/16 Q1019  
LIMF 240450Z 36004KT 340V050 CAVOK 20/16 Q1019  
LIMF 240420Z 32004KT 290V350 CAVOK 20/15 Q1019  
LIMF 240350Z 33001KT CAVOK 19/16 Q1019  
LIMF 240320Z VRB01KT CAVOK 18/16 Q1018  
LIMF 240250Z VRB01KT CAVOK 19/16 Q1018  
LIMF 240220Z 32003KT CAVOK 20/15 Q1018  
LIMF 240150Z 29003KT CAVOK 21/15 Q1018  
LIMF 240120Z 30003KT CAVOK 21/16 Q1018  
LIMF 240050Z 29003KT CAVOK 20/16 Q1018  
LIMF 240020Z VRB02KT CAVOK 21/16 Q1018  
LIMF 232350Z VRB01KT CAVOK 21/16 Q1018  
LIMF 232320Z 18002KT CAVOK 21/16 Q1018  
LIMF 232250Z VRB01KT CAVOK 21/16 Q1018  
LIMF 232220Z VRB02KT CAVOK 22/16 Q1017  
LIMF 232150Z 33004KT CAVOK 23/15 Q1017  
LIMF 232120Z 32005KT CAVOK 23/15 Q1017  
LIMF 232050Z 33004KT CAVOK 24/16 Q1017  
LIMF 232020Z 33005KT CAVOK 24/16 Q1016  
LIMF 231950Z 36005KT CAVOK 25/18 Q1016  
LIMF 231920Z VRB01KT CAVOK 26/16 Q1016  
LIMF 231850Z 08003KT CAVOK 27/17 Q1015  
LIMF 231820Z 06004KT CAVOK 27/18 Q1015  
LIMF 231750Z 08003KT 060V160 CAVOK 28/18 Q1015  
LIMF 231720Z 07003KT 030V110 CAVOK 28/16 Q1015  
LIMF 231650Z 05003KT 350V100 CAVOK 29/16 Q1015  
LIMF 231620Z VRB01KT CAVOK 29/15 Q1015  
LIMF 231550Z VRB02KT CAVOK 29/16 Q1015  
LIMF 231520Z VRB02KT CAVOK 29/15 Q1015  
LIMF 231450Z 06004KT 030V100 CAVOK 28/15 Q1015  
LIMF 231420Z VRB02KT CAVOK 29/15 Q1015  
LIMF 231350Z 12005KT 070V140 CAVOK 28/15 Q1015  
LIMF 231320Z 10005KT 040V140 CAVOK 28/15 Q1015  
LIMF 231250Z VRB03KT CAVOK 27/15 Q1015  
LIMF 231220Z VRB02KT CAVOK 28/15 Q1016  
LIMF 231150Z VRB03KT CAVOK 27/15 Q1015  
LIMF 231120Z VRB01KT CAVOK 26/15 Q1016  
LIMF 231050Z VRB04KT CAVOK 25/15 Q1016  
LIMF 231020Z VRB04KT CAVOK 25/15 Q1016  
LIMF 230950Z 14003KT 050V220 CAVOK 24/15 Q1016  
LIMF 230920Z 08004KT 030V150 CAVOK 23/15 Q1015  
LIMF 230850Z VRB02KT CAVOK 23/15 Q1015